Time;durP1;ratioP1;P1;durP2;ratioP2;P2;SDS_P1;SDS_P2;PMS_P1;PMS_P2;Temp;Humidity;BMP_temperature;BMP_pressure;BME280_temperature;BME280_humidity;BME280_pressure;Samples;Min_cycle;Max_cycle;Signal;HPM_P1;HPM_P2
2023/07/01 00:02:48;;;;;;;10.70;7.43;;;;;;;;;;6220475;28;20048;-81
2023/07/01 00:05:49;;;;;;;10.50;7.35;;;;;;;;;;6224541;28;20110;-80
2023/07/01 00:08:49;;;;;;;9.97;7.87;;;;;;;;;;6224088;28;20029;-83
2023/07/01 00:11:49;;;;;;;9.80;7.27;;;;;;;;;;6222485;28;20481;-82
2023/07/01 00:14:49;;;;;;;9.93;7.00;;;;;;;;;;6220022;28;20018;-81
2023/07/01 00:17:50;;;;;;;9.17;7.03;;;;;;;;;;6219008;28;20024;-81
2023/07/01 00:20:50;;;;;;;9.30;6.90;;;;;;;;;;6218545;28;20018;-81
2023/07/01 00:23:50;;;;;;;11.40;8.70;;;;;;;;;;6219217;28;20014;-82
2023/07/01 00:26:51;;;;;;;11.13;8.00;;;;;;;;;;6220027;28;20076;-82
2023/07/01 00:29:52;;;;;;;13.00;8.53;;;;;;;;;;6220095;28;20474;-81
2023/07/01 00:32:52;;;;;;;10.77;7.80;;;;;;;;;;6219886;28;20038;-81
2023/07/01 00:35:52;;;;;;;11.88;8.70;;;;;;;;;;6219908;28;20030;-81
2023/07/01 00:38:52;;;;;;;14.83;9.23;;;;;;;;;;6220992;28;20045;-81
2023/07/01 00:41:53;;;;;;;11.80;8.47;;;;;;;;;;6213020;28;20026;-81
2023/07/01 00:44:53;;;;;;;10.80;8.23;;;;;;;;;;6220047;28;20017;-81
2023/07/01 00:47:53;;;;;;;10.87;7.77;;;;;;;;;;6219725;28;20070;-81
2023/07/01 00:50:54;;;;;;;11.23;7.57;;;;;;;;;;6219184;28;20021;-81
2023/07/01 00:53:54;;;;;;;9.37;6.73;;;;;;;;;;6219460;28;20056;-81
2023/07/01 00:56:55;;;;;;;12.97;8.33;;;;;;;;;;6216685;28;20026;-81
2023/07/01 00:59:56;;;;;;;11.57;8.67;;;;;;;;;;6218043;28;20028;-80
2023/07/01 01:03:21;;;;;;;11.67;8.70;;;;;;;;;;6218634;28;20025;-80
2023/07/01 01:06:33;;;;;;;11.85;10.13;;;;;;;;;;6215156;28;20028;-81
2023/07/01 01:09:37;;;;;;;13.88;10.95;;;;;;;;;;6213218;28;20389;-80
2023/07/01 01:12:38;;;;;;;16.15;11.07;;;;;;;;;;6196656;28;20041;-81
2023/07/01 01:15:39;;;;;;;13.25;10.13;;;;;;;;;;6200932;28;20080;-80
2023/07/01 01:18:44;;;;;;;12.23;7.47;;;;;;;;;;6218572;28;20029;-81
2023/07/01 01:21:48;;;;;;;14.77;10.10;;;;;;;;;;6216868;28;20022;-81
2023/07/01 01:24:57;;;;;;;10.43;9.27;;;;;;;;;;6217287;28;20029;-80
2023/07/01 01:27:58;;;;;;;13.15;10.02;;;;;;;;;;6211505;28;20088;-79
2023/07/01 01:30:58;;;;;;;10.80;8.38;;;;;;;;;;6216958;28;20025;-78
2023/07/01 01:33:59;;;;;;;11.53;9.73;;;;;;;;;;6216471;28;20048;-81
2023/07/01 01:37:02;;;;;;;11.73;9.80;;;;;;;;;;6196779;28;20149;-80
2023/07/01 01:40:09;;;;;;;11.88;10.30;;;;;;;;;;6217407;28;20781;-79
2023/07/01 01:43:16;;;;;;;12.38;10.27;;;;;;;;;;6211805;28;20076;-80
2023/07/01 01:46:17;;;;;;;13.98;10.60;;;;;;;;;;6214020;28;20018;-81
2023/07/01 01:49:18;;;;;;;18.60;11.43;;;;;;;;;;6218262;28;20072;-84
2023/07/01 01:52:18;;;;;;;14.77;13.27;;;;;;;;;;6213881;28;20032;-84
2023/07/01 01:55:20;;;;;;;13.40;11.47;;;;;;;;;;6219774;28;20032;-85
2023/07/01 01:58:20;;;;;;;;;;;;;;;;;;6219775;28;20034;-83
2023/07/01 02:01:20;;;;;;;14.23;12.02;;;;;;;;;;6214031;28;19913;-83
2023/07/01 02:04:21;;;;;;;15.77;12.90;;;;;;;;;;6217759;28;20082;-83
2023/07/01 02:07:21;;;;;;;16.47;12.77;;;;;;;;;;6217441;28;20790;-86
2023/07/01 02:10:21;;;;;;;18.00;12.63;;;;;;;;;;6217780;28;20033;-87
2023/07/01 02:13:22;;;;;;;18.38;14.05;;;;;;;;;;6216934;28;20061;-84
2023/07/01 02:16:22;;;;;;;16.40;13.93;;;;;;;;;;6218510;28;20033;-85
2023/07/01 02:19:22;;;;;;;17.77;14.30;;;;;;;;;;6219144;28;20147;-84
2023/07/01 02:22:22;;;;;;;17.73;13.93;;;;;;;;;;6218269;28;20076;-73
2023/07/01 02:25:22;;;;;;;17.43;15.50;;;;;;;;;;6217264;28;20124;-73
2023/07/01 02:28:23;;;;;;;18.35;15.88;;;;;;;;;;6217220;28;20050;-73
2023/07/01 02:31:23;;;;;;;19.30;15.95;;;;;;;;;;6217283;28;20025;-72
2023/07/01 02:34:27;;;;;;;24.50;16.13;;;;;;;;;;6216775;28;20472;-72
2023/07/01 02:37:27;;;;;;;18.30;15.23;;;;;;;;;;6216463;28;20064;-72
2023/07/01 02:40:27;;;;;;;16.80;13.90;;;;;;;;;;6217746;28;20053;-72
2023/07/01 02:43:28;;;;;;;25.27;15.03;;;;;;;;;;6221602;28;20033;-79
2023/07/01 02:46:28;;;;;;;19.73;15.95;;;;;;;;;;6222391;28;20072;-78
2023/07/01 02:49:29;;;;;;;27.57;16.37;;;;;;;;;;6221442;28;20047;-77
2023/07/01 02:52:29;;;;;;;18.63;16.60;;;;;;;;;;6221974;28;20093;-79
2023/07/01 02:55:29;;;;;;;23.63;16.73;;;;;;;;;;6221440;28;20018;-78
2023/07/01 02:58:30;;;;;;;21.40;17.27;;;;;;;;;;6221859;28;20058;-78
2023/07/01 03:01:30;;;;;;;16.90;13.27;;;;;;;;;;6218716;28;20018;-79
2023/07/01 03:04:31;;;;;;;15.97;14.27;;;;;;;;;;6220119;28;20064;-78
2023/07/01 03:07:31;;;;;;;14.33;12.77;;;;;;;;;;6218115;28;20419;-79
2023/07/01 03:10:32;;;;;;;16.80;14.70;;;;;;;;;;6217277;28;20593;-80
2023/07/01 03:13:32;;;;;;;16.27;14.57;;;;;;;;;;6221339;28;20025;-79
2023/07/01 03:16:32;;;;;;;17.30;14.70;;;;;;;;;;6220661;28;20021;-78
2023/07/01 03:19:33;;;;;;;19.30;15.93;;;;;;;;;;6220421;28;20430;-80
2023/07/01 03:22:33;;;;;;;21.45;17.58;;;;;;;;;;6220310;28;20025;-79
2023/07/01 03:25:35;;;;;;;19.92;17.65;;;;;;;;;;6220685;28;20887;-78
2023/07/01 03:28:35;;;;;;;22.63;19.55;;;;;;;;;;6220462;28;20390;-77
2023/07/01 03:31:36;;;;;;;25.48;17.63;;;;;;;;;;6219763;28;20125;-79
2023/07/01 03:34:37;;;;;;;25.67;18.02;;;;;;;;;;6202045;28;20439;-73
2023/07/01 03:37:42;;;;;;;22.73;19.30;;;;;;;;;;6213002;28;20022;-73
2023/07/01 03:40:42;;;;;;;22.90;19.98;;;;;;;;;;6220264;28;20018;-73
2023/07/01 03:43:42;;;;;;;22.80;17.93;;;;;;;;;;6219752;28;20025;-73
2023/07/01 03:46:42;;;;;;;23.73;18.33;;;;;;;;;;6218717;28;20357;-74
2023/07/01 03:49:42;;;;;;;25.40;21.03;;;;;;;;;;6202291;28;20021;-74
2023/07/01 03:52:43;;;;;;;27.17;20.05;;;;;;;;;;6219404;28;20109;-74
2023/07/01 03:55:43;;;;;;;30.03;21.90;;;;;;;;;;6215096;28;20022;-75
2023/07/01 03:58:43;;;;;;;27.03;22.87;;;;;;;;;;6217280;28;20097;-73
2023/07/01 04:01:43;;;;;;;26.10;21.97;;;;;;;;;;6220001;28;20030;-76
2023/07/01 04:04:44;;;;;;;30.40;23.85;;;;;;;;;;6219371;28;20030;-77
2023/07/01 04:07:45;;;;;;;27.80;20.33;;;;;;;;;;6218488;28;20018;-77
2023/07/01 04:10:45;;;;;;;27.05;21.98;;;;;;;;;;6219800;28;20034;-76
2023/07/01 04:13:45;;;;;;;27.17;21.83;;;;;;;;;;6214585;28;20018;-76
2023/07/01 04:16:45;;;;;;;27.33;21.98;;;;;;;;;;6215465;28;20057;-77
2023/07/01 04:19:46;;;;;;;25.50;20.67;;;;;;;;;;6219049;28;20097;-76
2023/07/01 04:22:47;;;;;;;23.70;20.43;;;;;;;;;;6218310;28;20014;-76
2023/07/01 04:25:47;;;;;;;26.95;22.10;;;;;;;;;;6218176;28;20152;-76
2023/07/01 04:28:47;;;;;;;30.17;22.80;;;;;;;;;;6216694;28;20034;-76
2023/07/01 04:31:47;;;;;;;24.53;19.67;;;;;;;;;;6219379;28;20101;-76
2023/07/01 04:34:48;;;;;;;26.60;21.90;;;;;;;;;;6218606;28;20022;-76
2023/07/01 04:37:48;;;;;;;23.50;20.50;;;;;;;;;;6218572;28;20013;-76
2023/07/01 04:40:48;;;;;;;26.87;22.57;;;;;;;;;;6218634;28;20030;-76
2023/07/01 04:43:48;;;;;;;21.93;19.33;;;;;;;;;;6219181;28;20504;-77
2023/07/01 04:46:48;;;;;;;22.47;19.03;;;;;;;;;;6218139;28;20055;-78
2023/07/01 04:49:52;;;;;;;25.35;21.35;;;;;;;;;;6218755;28;20017;-78
2023/07/01 04:52:52;;;;;;;23.95;20.48;;;;;;;;;;6216527;28;20366;-77
2023/07/01 04:55:52;;;;;;;23.17;20.70;;;;;;;;;;6217844;28;20046;-78
2023/07/01 04:58:53;;;;;;;24.15;18.75;;;;;;;;;;6217479;28;20545;-77
2023/07/01 05:01:53;;;;;;;23.27;20.17;;;;;;;;;;6214184;28;20117;-76
2023/07/01 05:04:53;;;;;;;24.05;18.45;;;;;;;;;;6213373;28;20384;-76
2023/07/01 05:07:53;;;;;;;27.52;19.17;;;;;;;;;;6217658;28;20092;-76
2023/07/01 05:10:53;;;;;;;19.65;16.77;;;;;;;;;;6218307;28;20610;-76
2023/07/01 05:13:53;;;;;;;22.73;17.57;;;;;;;;;;6218299;28;20024;-76
2023/07/01 05:16:54;;;;;;;20.98;18.52;;;;;;;;;;6218140;28;20560;-77
2023/07/01 05:19:54;;;;;;;24.03;20.80;;;;;;;;;;6218236;28;20040;-77
2023/07/01 05:22:54;;;;;;;23.30;17.08;;;;;;;;;;6214525;28;20018;-78
2023/07/01 05:25:54;;;;;;;19.90;17.67;;;;;;;;;;6218105;28;20018;-78
2023/07/01 05:28:56;;;;;;;22.77;19.53;;;;;;;;;;6217627;28;20492;-79
2023/07/01 05:31:56;;;;;;;19.55;16.88;;;;;;;;;;6217576;28;20384;-78
2023/07/01 05:34:57;;;;;;;19.03;16.47;;;;;;;;;;6217528;28;20021;-79
2023/07/01 05:37:57;;;;;;;25.60;19.27;;;;;;;;;;6217080;28;20018;-79
2023/07/01 05:40:57;;;;;;;25.20;20.23;;;;;;;;;;6217520;28;20013;-79
2023/07/01 05:43:57;;;;;;;22.83;17.75;;;;;;;;;;6218145;28;20352;-79
2023/07/01 05:46:58;;;;;;;21.40;17.33;;;;;;;;;;6217717;28;20018;-79
2023/07/01 05:49:58;;;;;;;20.53;17.23;;;;;;;;;;6221597;28;20049;-79
2023/07/01 05:52:58;;;;;;;22.33;18.75;;;;;;;;;;6215332;28;20831;-75
2023/07/01 05:55:59;;;;;;;23.47;17.80;;;;;;;;;;6217117;28;20021;-75
2023/07/01 05:58:59;;;;;;;19.93;17.40;;;;;;;;;;6217047;28;20078;-75
2023/07/01 06:01:59;;;;;;;20.80;18.60;;;;;;;;;;6217617;28;20108;-75
2023/07/01 06:05:00;;;;;;;21.50;18.48;;;;;;;;;;6217218;28;20095;-75
2023/07/01 06:08:00;;;;;;;22.33;17.83;;;;;;;;;;6217508;28;20064;-75
2023/07/01 06:11:00;;;;;;;20.80;16.65;;;;;;;;;;6217572;28;20361;-75
2023/07/01 06:14:00;;;;;;;21.40;18.13;;;;;;;;;;6195801;28;20022;-75
2023/07/01 06:17:00;;;;;;;18.65;16.20;;;;;;;;;;6213649;28;20018;-75
2023/07/01 06:20:01;;;;;;;21.57;16.17;;;;;;;;;;6213151;28;20065;-75
2023/07/01 06:23:01;;;;;;;21.07;17.00;;;;;;;;;;6216431;28;20014;-75
2023/07/01 06:26:02;;;;;;;19.92;16.45;;;;;;;;;;6222108;28;20017;-75
2023/07/01 06:29:02;;;;;;;19.70;16.10;;;;;;;;;;6220815;28;20046;-75
2023/07/01 06:32:03;;;;;;;18.07;15.80;;;;;;;;;;6220892;28;20014;-79
2023/07/01 06:35:03;;;;;;;18.93;16.57;;;;;;;;;;6218521;28;20257;-78
2023/07/01 06:38:04;;;;;;;16.63;14.50;;;;;;;;;;6217123;28;20028;-79
2023/07/01 06:41:04;;;;;;;17.47;13.77;;;;;;;;;;6210264;28;20018;-79
2023/07/01 06:44:04;;;;;;;20.02;14.93;;;;;;;;;;6214675;28;20544;-75
2023/07/01 06:47:05;;;;;;;17.83;13.20;;;;;;;;;;6220893;28;20057;-74
2023/07/01 06:50:06;;;;;;;15.40;13.23;;;;;;;;;;6219847;28;20132;-74
2023/07/01 06:53:06;;;;;;;14.73;13.03;;;;;;;;;;6220136;28;20344;-75
2023/07/01 06:56:06;;;;;;;14.33;12.13;;;;;;;;;;6218748;28;20117;-75
2023/07/01 06:59:07;;;;;;;13.97;10.60;;;;;;;;;;6217231;28;20036;-75
2023/07/01 07:02:07;;;;;;;12.57;11.23;;;;;;;;;;6216766;28;20026;-79
2023/07/01 07:05:08;;;;;;;11.53;10.33;;;;;;;;;;6219935;28;20037;-79
2023/07/01 07:08:09;;;;;;;14.52;10.30;;;;;;;;;;6215539;28;20092;-79
2023/07/01 07:11:09;;;;;;;14.07;10.30;;;;;;;;;;6219826;28;20022;-80
2023/07/01 07:14:09;;;;;;;11.90;10.17;;;;;;;;;;6216520;28;20026;-80
2023/07/01 07:17:09;;;;;;;13.15;10.30;;;;;;;;;;6219961;28;20014;-81
2023/07/01 07:20:10;;;;;;;12.60;10.57;;;;;;;;;;6208689;28;20057;-81
2023/07/01 07:23:10;;;;;;;13.13;11.47;;;;;;;;;;6218166;28;20025;-81
2023/07/01 07:26:10;;;;;;;11.40;9.50;;;;;;;;;;6220165;28;20080;-81
2023/07/01 07:29:10;;;;;;;12.85;9.65;;;;;;;;;;6218757;28;20038;-81
2023/07/01 07:32:10;;;;;;;10.40;8.67;;;;;;;;;;6217935;28;20659;-81
2023/07/01 07:35:11;;;;;;;8.70;7.80;;;;;;;;;;6215020;28;20030;-81
2023/07/01 07:38:11;;;;;;;12.20;9.17;;;;;;;;;;6219358;28;20032;-82
2023/07/01 07:41:11;;;;;;;12.27;9.27;;;;;;;;;;6209395;28;20528;-82
2023/07/01 07:44:12;;;;;;;10.17;7.87;;;;;;;;;;6216314;28;20018;-80
2023/07/01 07:47:12;;;;;;;10.57;8.17;;;;;;;;;;6214189;28;20086;-80
2023/07/01 07:50:13;;;;;;;11.93;7.43;;;;;;;;;;6210226;28;20064;-81
2023/07/01 07:53:15;;;;;;;12.18;8.30;;;;;;;;;;6217950;28;20385;-76
2023/07/01 07:56:15;;;;;;;;;;;;;;;;;;6198839;28;20040;-74
2023/07/01 07:59:17;;;;;;;8.63;7.03;;;;;;;;;;6218701;28;19917;-75
2023/07/01 08:02:17;;;;;;;10.88;7.63;;;;;;;;;;6216675;28;20093;-76
2023/07/01 08:05:17;;;;;;;11.35;7.43;;;;;;;;;;6218783;28;20018;-75
2023/07/01 08:08:18;;;;;;;8.53;7.23;;;;;;;;;;6219740;28;20026;-75
2023/07/01 08:11:18;;;;;;;9.77;7.10;;;;;;;;;;6211942;28;20017;-76
2023/07/01 08:14:19;;;;;;;11.37;7.87;;;;;;;;;;6217352;28;20010;-82
2023/07/01 08:17:19;;;;;;;9.03;6.93;;;;;;;;;;6217426;28;20427;-83
2023/07/01 08:20:22;;;;;;;11.10;8.13;;;;;;;;;;6219778;28;20249;-84
2023/07/01 08:23:22;;;;;;;10.95;8.57;;;;;;;;;;6213657;28;20032;-81
2023/07/01 08:26:24;;;;;;;10.10;8.53;;;;;;;;;;6219159;28;20036;-81
2023/07/01 08:29:24;;;;;;;9.32;7.80;;;;;;;;;;6218169;28;20049;-77
2023/07/01 08:32:24;;;;;;;12.95;9.55;;;;;;;;;;6217973;28;20073;-82
2023/07/01 08:35:24;;;;;;;12.97;9.80;;;;;;;;;;6219707;28;20033;-82
2023/07/01 08:38:25;;;;;;;13.23;10.17;;;;;;;;;;6218638;28;20052;-81
2023/07/01 08:41:25;;;;;;;11.97;10.47;;;;;;;;;;6210679;28;20037;-81
2023/07/01 08:44:25;;;;;;;12.20;10.80;;;;;;;;;;6214616;28;20037;-82
2023/07/01 08:47:26;;;;;;;12.67;10.00;;;;;;;;;;6218271;28;20022;-83
2023/07/01 08:50:43;;;;;;;13.10;10.63;;;;;;;;;;6218093;28;20075;-81
2023/07/01 08:53:44;;;;;;;12.70;11.30;;;;;;;;;;6216732;28;20119;-81
2023/07/01 08:56:44;;;;;;;;;;;;;;;;;;6216313;28;20389;-81
2023/07/01 08:59:47;;;;;;;14.18;10.07;;;;;;;;;;6200655;28;19964;-82
2023/07/01 09:02:48;;;;;;;11.70;10.43;;;;;;;;;;6215883;28;20045;-82
2023/07/01 09:05:48;;;;;;;11.30;9.17;;;;;;;;;;6198570;28;20440;-83
2023/07/01 09:08:48;;;;;;;12.20;9.33;;;;;;;;;;6218753;28;20810;-81
2023/07/01 09:11:48;;;;;;;10.43;9.02;;;;;;;;;;6218675;28;20026;-81
2023/07/01 09:15:00;;;;;;;11.32;9.73;;;;;;;;;;6217864;28;20052;-76
2023/07/01 09:18:17;;;;;;;12.50;10.43;;;;;;;;;;6218086;28;20060;-76
2023/07/01 09:21:18;;;;;;;10.98;9.88;;;;;;;;;;6217449;28;20053;-75
2023/07/01 09:24:35;;;;;;;15.93;10.50;;;;;;;;;;6218818;28;20072;-82
2023/07/01 09:27:39;;;;;;;8.82;7.72;;;;;;;;;;6212506;28;20037;-81
2023/07/01 09:30:39;;;;;;;13.40;9.95;;;;;;;;;;6218117;28;20468;-81
2023/07/01 09:33:40;;;;;;;9.32;7.65;;;;;;;;;;6217703;28;20136;-82
2023/07/01 09:36:40;;;;;;;11.40;8.63;;;;;;;;;;6217806;28;20058;-82
2023/07/01 09:39:40;;;;;;;10.47;9.30;;;;;;;;;;6217702;28;20080;-82
2023/07/01 09:42:50;;;;;;;11.90;8.77;;;;;;;;;;6217618;28;20032;-81
2023/07/01 09:45:54;;;;;;;12.40;9.60;;;;;;;;;;6218195;28;20040;-81
2023/07/01 09:48:55;;;;;;;11.10;10.00;;;;;;;;;;6217789;28;20022;-84
2023/07/01 09:52:00;;;;;;;10.13;8.75;;;;;;;;;;6219644;28;20026;-82
2023/07/01 09:55:01;;;;;;;11.98;10.15;;;;;;;;;;6223180;28;20049;-82
2023/07/01 09:58:03;;;;;;;11.15;9.63;;;;;;;;;;6222955;28;20097;-82
2023/07/01 10:01:03;;;;;;;11.02;9.40;;;;;;;;;;6219558;28;20112;-83
2023/07/01 10:04:08;;;;;;;11.80;9.25;;;;;;;;;;6223282;28;20052;-82
2023/07/01 10:07:09;;;;;;;11.60;9.55;;;;;;;;;;6223242;28;20100;-82
2023/07/01 10:10:15;;;;;;;9.63;8.20;;;;;;;;;;6205365;28;20396;-82
2023/07/01 10:13:16;;;;;;;11.35;8.82;;;;;;;;;;6223117;28;20046;-82
2023/07/01 10:16:17;;;;;;;14.20;9.50;;;;;;;;;;6205675;28;20033;-83
2023/07/01 10:19:31;;;;;;;10.70;8.35;;;;;;;;;;6222250;28;20026;-83
2023/07/01 10:22:31;;;;;;;11.18;8.88;;;;;;;;;;6222932;28;20013;-83
2023/07/01 10:25:33;;;;;;;10.23;8.00;;;;;;;;;;6223224;28;20023;-82
2023/07/01 10:28:34;;;;;;;11.23;8.63;;;;;;;;;;6222516;28;20042;-82
2023/07/01 10:31:35;;;;;;;10.07;8.93;;;;;;;;;;6222170;28;20068;-82
2023/07/01 10:34:53;;;;;;;12.07;9.23;;;;;;;;;;6222463;28;20014;-83
2023/07/01 10:38:13;;;;;;;11.27;8.88;;;;;;;;;;6221939;28;20366;-81
2023/07/01 10:41:13;;;;;;;11.93;10.17;;;;;;;;;;6222040;28;20017;-83
2023/07/01 10:44:20;;;;;;;11.45;9.15;;;;;;;;;;6221635;28;20474;-75
2023/07/01 10:47:20;;;;;;;11.00;8.73;;;;;;;;;;6222385;28;20014;-75
2023/07/01 10:50:21;;;;;;;11.00;9.80;;;;;;;;;;6222115;28;20487;-75
2023/07/01 10:53:21;;;;;;;10.47;9.30;;;;;;;;;;6198601;28;20393;-84
2023/07/01 10:56:21;;;;;;;12.60;10.07;;;;;;;;;;6215963;28;20531;-83
2023/07/01 10:59:23;;;;;;;10.70;8.80;;;;;;;;;;6212498;28;20109;-85
2023/07/01 11:02:36;;;;;;;11.32;9.98;;;;;;;;;;6220891;28;20416;-83
2023/07/01 11:05:53;;;;;;;13.02;9.75;;;;;;;;;;6212890;28;20018;-85
2023/07/01 11:08:56;;;;;;;11.43;9.60;;;;;;;;;;6218088;28;20526;-83
2023/07/01 11:11:56;;;;;;;10.70;8.98;;;;;;;;;;6223795;28;20017;-86
2023/07/01 11:15:00;;;;;;;10.73;8.43;;;;;;;;;;6222128;28;20459;-84
2023/07/01 11:18:01;;;;;;;11.68;8.55;;;;;;;;;;6202509;28;20022;-85
2023/07/01 11:21:02;;;;;;;10.85;8.88;;;;;;;;;;6221556;28;20021;-86
2023/07/01 11:24:07;;;;;;;11.53;9.93;;;;;;;;;;6224155;28;20045;-87
2023/07/01 11:27:08;;;;;;;12.82;9.52;;;;;;;;;;6226283;28;20045;-87
2023/07/01 11:30:09;;;;;;;12.13;9.00;;;;;;;;;;6222531;28;20396;-85
2023/07/01 11:33:09;;;;;;;9.82;8.50;;;;;;;;;;6220875;28;20026;-84
2023/07/01 11:36:11;;;;;;;9.88;7.45;;;;;;;;;;6221051;28;20033;-86
2023/07/01 11:39:15;;;;;;;11.48;8.93;;;;;;;;;;6221289;28;20028;-90
2023/07/01 11:42:15;;;;;;;17.98;10.38;;;;;;;;;;6221633;28;20034;-87
2023/07/01 11:45:15;;;;;;;12.00;9.33;;;;;;;;;;6220368;28;20021;-86
2023/07/01 11:48:16;;;;;;;12.43;8.93;;;;;;;;;;6221460;28;20022;-87
2023/07/01 11:51:16;;;;;;;10.07;8.85;;;;;;;;;;6222251;28;20083;-89
2023/07/01 11:54:18;;;;;;;12.57;10.07;;;;;;;;;;6222079;28;20438;-89
2023/07/01 11:57:19;;;;;;;12.48;9.60;;;;;;;;;;6227050;28;20090;-87
2023/07/01 12:00:27;;;;;;;12.88;9.95;;;;;;;;;;6229593;28;20113;-83
2023/07/01 12:03:33;;;;;;;12.55;9.82;;;;;;;;;;6225753;28;20089;-90
2023/07/01 12:06:33;;;;;;;12.07;9.98;;;;;;;;;;6223822;28;20351;-87
2023/07/01 12:09:34;;;;;;;11.47;8.93;;;;;;;;;;6231146;28;20026;-80
2023/07/01 12:12:34;;;;;;;13.07;9.77;;;;;;;;;;6231292;28;20026;-84
2023/07/01 12:15:53;;;;;;;12.20;9.77;;;;;;;;;;6220841;28;20084;-86
2023/07/01 12:19:01;;;;;;;12.73;9.18;;;;;;;;;;6218195;28;20053;-85
2023/07/01 12:22:01;;;;;;;12.05;9.07;;;;;;;;;;6228954;28;20495;-85
2023/07/01 12:25:01;;;;;;;;;;;;;;;;;;6221302;28;20033;-86
2023/07/01 12:28:03;;;;;;;13.17;10.30;;;;;;;;;;6217318;28;20376;-87
2023/07/01 12:31:04;;;;;;;12.00;9.02;;;;;;;;;;6221049;28;20445;-86
2023/07/01 12:34:04;;;;;;;12.00;9.35;;;;;;;;;;6221364;28;20076;-87
2023/07/01 12:37:08;;;;;;;12.77;9.37;;;;;;;;;;6223793;28;20022;-85
2023/07/01 12:40:09;;;;;;;12.13;9.23;;;;;;;;;;6238608;28;20017;-84
2023/07/01 12:43:09;;;;;;;;;;;;;;;;;;6237894;28;20042;-86
2023/07/01 12:46:09;;;;;;;13.63;9.70;;;;;;;;;;6228194;28;19936;-83
2023/07/01 12:49:09;;;;;;;12.35;9.88;;;;;;;;;;6233930;28;20029;-83
2023/07/01 12:52:10;;;;;;;;;;;;;;;;;;6233562;28;20096;-87
2023/07/01 12:55:10;;;;;;;13.07;10.48;;;;;;;;;;6232698;28;19909;-85
2023/07/01 12:58:10;;;;;;;;;;;;;;;;;;6232017;28;20030;-85
2023/07/01 13:01:10;;;;;;;11.00;9.18;;;;;;;;;;6229527;28;19919;-86
2023/07/01 13:04:10;;;;;;;12.18;8.93;;;;;;;;;;6226249;28;20369;-84
2023/07/01 13:07:11;;;;;;;;;;;;;;;;;;6218444;28;20044;-84
2023/07/01 13:10:11;;;;;;;13.73;10.70;;;;;;;;;;6216169;28;20000;-83
2023/07/01 13:13:11;;;;;;;12.35;9.52;;;;;;;;;;6218170;28;20044;-75
2023/07/01 13:16:11;;;;;;;;;;;;;;;;;;6217708;28;20031;-75
2023/07/01 13:19:12;;;;;;;12.38;9.43;;;;;;;;;;6216245;28;19909;-76
2023/07/01 13:22:14;;;;;;;14.02;11.10;;;;;;;;;;6216840;28;20032;-76
2023/07/01 13:25:17;;;;;;;12.77;10.60;;;;;;;;;;6217089;28;20558;-77
2023/07/01 13:28:18;;;;;;;13.57;10.10;;;;;;;;;;6212653;28;20049;-76
2023/07/01 13:31:20;;;;;;;12.23;10.43;;;;;;;;;;6210934;28;20672;-76
2023/07/01 13:34:21;;;;;;;13.43;10.77;;;;;;;;;;6219032;28;20041;-85
2023/07/01 13:37:22;;;;;;;13.77;11.18;;;;;;;;;;6213194;28;20113;-77
2023/07/01 13:40:22;;;;;;;14.90;11.25;;;;;;;;;;6211722;28;20029;-83
2023/07/01 13:43:24;;;;;;;13.27;10.85;;;;;;;;;;6216694;28;20468;-82
2023/07/01 13:46:30;;;;;;;16.45;10.82;;;;;;;;;;6205863;28;20029;-80
2023/07/01 13:49:30;;;;;;;13.50;10.68;;;;;;;;;;6210343;28;20025;-83
2023/07/01 13:52:30;;;;;;;11.35;9.18;;;;;;;;;;6211923;28;20030;-84
2023/07/01 13:55:31;;;;;;;12.65;10.35;;;;;;;;;;6212631;28;20530;-82
2023/07/01 13:58:40;;;;;;;12.50;10.47;;;;;;;;;;6213038;28;20071;-84
2023/07/01 14:01:48;;;;;;;14.23;12.05;;;;;;;;;;6210739;28;20080;-80
2023/07/01 14:04:49;;;;;;;12.95;10.73;;;;;;;;;;6212840;28;20441;-80
2023/07/01 14:07:55;;;;;;;12.48;10.27;;;;;;;;;;6213737;28;20030;-81
2023/07/01 14:10:57;;;;;;;12.10;10.35;;;;;;;;;;6214110;28;20037;-83
2023/07/01 14:13:58;;;;;;;11.18;9.68;;;;;;;;;;6212788;28;20523;-82
2023/07/01 14:16:59;;;;;;;13.77;11.43;;;;;;;;;;6215592;28;20033;-83
2023/07/01 14:20:00;;;;;;;12.05;9.57;;;;;;;;;;6216851;28;20132;-81
2023/07/01 14:23:00;;;;;;;13.30;10.83;;;;;;;;;;6198839;28;20034;-79
2023/07/01 14:26:00;;;;;;;13.73;10.33;;;;;;;;;;6217109;28;20101;-84
2023/07/01 14:29:01;;;;;;;13.70;9.98;;;;;;;;;;6216861;28;20046;-81
2023/07/01 14:32:02;;;;;;;13.07;10.80;;;;;;;;;;6217210;28;20101;-76
2023/07/01 14:35:07;;;;;;;14.60;11.10;;;;;;;;;;6216196;28;20099;-76
2023/07/01 14:38:09;;;;;;;11.85;10.25;;;;;;;;;;6207675;28;20503;-76
2023/07/01 14:41:17;;;;;;;11.50;9.25;;;;;;;;;;6200985;28;20021;-76
2023/07/01 14:44:18;;;;;;;12.70;9.68;;;;;;;;;;6194622;28;20034;-83
2023/07/01 14:47:18;;;;;;;13.05;10.52;;;;;;;;;;6219638;28;20033;-84
2023/07/01 14:50:18;;;;;;;14.57;9.97;;;;;;;;;;6219396;28;20022;-82
2023/07/01 14:53:18;;;;;;;12.90;9.83;;;;;;;;;;6218254;28;20787;-83
2023/07/01 14:56:20;;;;;;;12.53;11.03;;;;;;;;;;6213488;28;20034;-82
2023/07/01 14:59:20;;;;;;;13.20;10.13;;;;;;;;;;6218588;28;20121;-82
2023/07/01 15:02:20;;;;;;;13.20;10.17;;;;;;;;;;6198330;28;20038;-83
2023/07/01 15:05:21;;;;;;;12.63;10.57;;;;;;;;;;6220749;28;20068;-81
2023/07/01 15:08:21;;;;;;;14.20;10.20;;;;;;;;;;6219133;28;20014;-82
2023/07/01 15:11:22;;;;;;;11.63;10.25;;;;;;;;;;6221177;28;20051;-83
2023/07/01 15:14:22;;;;;;;13.40;11.32;;;;;;;;;;6212057;28;20030;-83
2023/07/01 15:17:22;;;;;;;12.53;10.57;;;;;;;;;;6218356;28;20156;-84
2023/07/01 15:20:23;;;;;;;16.55;11.65;;;;;;;;;;6220146;28;20056;-84
2023/07/01 15:23:23;;;;;;;13.57;10.87;;;;;;;;;;6213186;28;20629;-82
2023/07/01 15:26:23;;;;;;;13.55;10.63;;;;;;;;;;6216909;28;20030;-82
2023/07/01 15:29:24;;;;;;;13.50;10.73;;;;;;;;;;6227301;28;20172;-83
2023/07/01 15:32:24;;;;;;;14.37;10.53;;;;;;;;;;6243605;28;20041;-83
2023/07/01 15:35:24;;;;;;;16.33;11.70;;;;;;;;;;6242775;28;20021;-83
2023/07/01 15:38:24;;;;;;;13.80;10.40;;;;;;;;;;6241992;28;20139;-84
2023/07/01 15:41:24;;;;;;;15.60;11.40;;;;;;;;;;6244657;28;20272;-84
2023/07/01 15:44:25;;;;;;;14.90;12.27;;;;;;;;;;6243108;28;20021;-81
2023/07/01 15:47:25;;;;;;;14.07;10.60;;;;;;;;;;6242334;28;20527;-79
2023/07/01 15:50:25;;;;;;;12.10;9.83;;;;;;;;;;6243924;28;20026;-83
2023/07/01 15:53:25;;;;;;;14.13;10.75;;;;;;;;;;6243376;28;20518;-82
2023/07/01 15:56:25;;;;;;;12.10;9.93;;;;;;;;;;6243022;28;20112;-81
2023/07/01 15:59:29;;;;;;;12.10;9.57;;;;;;;;;;6243884;28;20742;-81
2023/07/01 16:02:30;;;;;;;14.40;10.18;;;;;;;;;;6243443;28;20022;-82
2023/07/01 16:05:30;;;;;;;12.65;10.02;;;;;;;;;;6240763;28;20027;-82
2023/07/01 16:08:31;;;;;;;14.40;11.10;;;;;;;;;;6242408;28;20408;-81
2023/07/01 16:11:32;;;;;;;12.60;10.65;;;;;;;;;;6241038;28;20033;-81
2023/07/01 16:14:32;;;;;;;13.90;10.45;;;;;;;;;;6238092;28;20837;-83
2023/07/01 16:17:33;;;;;;;14.38;11.45;;;;;;;;;;6242131;28;20147;-83
2023/07/01 16:20:33;;;;;;;15.88;11.20;;;;;;;;;;6239535;28;20029;-83
2023/07/01 16:23:35;;;;;;;15.73;10.88;;;;;;;;;;6242331;28;20079;-76
2023/07/01 16:26:41;;;;;;;15.55;10.43;;;;;;;;;;6244510;28;20030;-77
2023/07/01 16:29:41;;;;;;;13.70;10.48;;;;;;;;;;6223749;28;20054;-76
2023/07/01 16:32:43;;;;;;;13.07;10.30;;;;;;;;;;6214881;28;20053;-76
2023/07/01 16:35:52;;;;;;;13.85;9.88;;;;;;;;;;6216821;28;20042;-76
2023/07/01 16:38:54;;;;;;;14.75;11.30;;;;;;;;;;6216871;28;20026;-76
2023/07/01 16:41:56;;;;;;;13.68;10.57;;;;;;;;;;6218496;28;20037;-76
2023/07/01 16:44:56;;;;;;;14.55;11.13;;;;;;;;;;6217148;28;20030;-76
2023/07/01 16:47:57;;;;;;;13.93;10.43;;;;;;;;;;6216846;28;20045;-76
2023/07/01 16:51:01;;;;;;;12.60;10.00;;;;;;;;;;6213772;28;20018;-77
2023/07/01 16:54:02;;;;;;;13.85;10.07;;;;;;;;;;6214091;28;20125;-77
2023/07/01 16:57:04;;;;;;;12.27;9.73;;;;;;;;;;6210538;28;20758;-77
2023/07/01 17:00:07;;;;;;;15.93;10.98;;;;;;;;;;6213795;28;20025;-76
2023/07/01 17:03:10;;;;;;;12.65;9.73;;;;;;;;;;6213693;28;20037;-81
2023/07/01 17:06:41;;;;;;;11.85;9.40;;;;;;;;;;6217788;28;20460;-84
2023/07/01 17:09:42;;;;;;;11.75;8.57;;;;;;;;;;6215281;28;20473;-83
2023/07/01 17:12:43;;;;;;;12.90;10.10;;;;;;;;;;6215156;28;20034;-83
2023/07/01 17:15:43;;;;;;;13.35;9.60;;;;;;;;;;6211346;28;20022;-83
2023/07/01 17:18:43;;;;;;;16.23;10.63;;;;;;;;;;6213665;28;20025;-82
2023/07/01 17:21:43;;;;;;;14.83;9.53;;;;;;;;;;6219744;28;20025;-83
2023/07/01 17:24:44;;;;;;;15.25;11.13;;;;;;;;;;6199563;28;20022;-83
2023/07/01 17:27:44;;;;;;;11.98;10.25;;;;;;;;;;6214958;28;20489;-84
2023/07/01 17:30:44;;;;;;;21.13;16.57;;;;;;;;;;6212538;28;20034;-83
2023/07/01 17:33:44;;;;;;;14.05;10.20;;;;;;;;;;6211444;28;20076;-83
2023/07/01 17:36:44;;;;;;;13.77;10.30;;;;;;;;;;6216849;28;20025;-82
2023/07/01 17:39:45;;;;;;;15.02;11.77;;;;;;;;;;6200186;28;20103;-82
2023/07/01 17:42:45;;;;;;;18.05;11.30;;;;;;;;;;6201036;28;20025;-82
2023/07/01 17:45:45;;;;;;;14.93;10.70;;;;;;;;;;6221109;28;20037;-83
2023/07/01 17:48:45;;;;;;;16.00;11.80;;;;;;;;;;6217260;28;20268;-83